Time;durP1;ratioP1;P1;durP2;ratioP2;P2;SDS_P1;SDS_P2;PMS_P1;PMS_P2;Temp;Humidity;BMP_temperature;BMP_pressure;BME280_temperature;BME280_humidity;BME280_pressure;Samples;Min_cycle;Max_cycle;Signal;HPM_P1;HPM_P2
2024/01/05 00:00:31;;;;;;;64.57;33.80;;;;;;;-141.97;91.98;46479.41;6183359;23;20145;-86
2024/01/05 00:02:59;;;;;;;26.97;16.77;;;;;;;-141.97;92.38;45912.63;6158452;23;20180;-86
2024/01/05 00:05:26;;;;;;;25.13;15.17;;;;;;;-141.97;92.35;46492.88;6184222;23;20134;-87
2024/01/05 00:07:52;;;;;;;23.03;13.43;;;;;;;-141.97;92.58;46596.63;6185401;23;20466;-86
2024/01/05 00:10:17;;;;;;;16.90;10.97;;;;;;;-141.97;92.70;46652.34;6155757;23;20146;-86
2024/01/05 00:12:43;;;;;;;16.00;9.90;;;;;;;-141.97;93.05;46558.19;6182569;23;20138;-86
2024/01/05 00:15:12;;;;;;;14.00;8.53;;;;;;;-141.97;92.91;46173.91;6156261;23;20419;-85
2024/01/05 00:17:37;;;;;;;18.23;10.07;;;;;;;-141.97;93.08;46099.00;6156655;23;20142;-86
2024/01/05 00:20:04;;;;;;;19.30;10.67;;;;;;;-141.97;93.09;46127.81;6155824;23;20157;-85
2024/01/05 00:22:30;;;;;;;18.47;9.87;;;;;;;-141.97;93.06;46381.41;6155547;23;20150;-86
2024/01/05 00:24:55;;;;;;;17.27;9.97;;;;;;;-141.97;92.49;45885.72;6155816;23;20571;-86
2024/01/05 00:27:20;;;;;;;21.13;10.17;;;;;;;-141.97;92.17;46444.81;6182075;23;20190;-85
2024/01/05 00:29:46;;;;;;;21.83;10.60;;;;;;;-141.97;92.47;45989.47;6182595;23;20138;-86
2024/01/05 00:32:11;;;;;;;27.03;14.20;;;;;;;-141.97;92.14;46404.47;6182483;23;20170;-85
2024/01/05 00:34:37;;;;;;;28.00;12.67;;;;;;;-141.97;92.06;45941.44;6155705;23;20598;-86
2024/01/05 00:37:03;;;;;;;19.53;11.37;;;;;;;-141.97;91.52;46550.50;6155377;23;20143;-85
2024/01/05 00:39:28;;;;;;;18.03;10.30;;;;;;;-141.97;91.96;46502.47;6182088;23;20138;-85
2024/01/05 00:41:54;;;;;;;15.77;8.60;;;;;;;-141.97;91.89;46300.72;6155531;23;20613;-85
2024/01/05 00:44:19;;;;;;;13.97;8.30;;;;;;;-141.97;91.96;46598.53;6182164;23;20138;-86
2024/01/05 00:46:45;;;;;;;18.63;10.20;;;;;;;-141.97;92.15;46521.69;6155867;23;20196;-85
2024/01/05 01:20:12;;;;;;;9.73;6.03;;;;;;;-141.97;85.76;46496.72;6174129;23;20212;-87
2024/01/05 01:22:38;;;;;;;9.13;4.67;;;;;;;-141.97;84.97;46181.59;6181665;23;20154;-88
2024/01/05 01:25:04;;;;;;;11.20;6.73;;;;;;;-141.97;83.85;46448.66;6155311;23;20157;-86
2024/01/05 01:27:29;;;;;;;11.37;6.53;;;;;;;-141.97;83.10;46091.31;6155580;23;20152;-85
2024/01/05 01:29:55;;;;;;;11.10;7.60;;;;;;;-141.97;82.73;46352.59;6155386;23;20169;-88
2024/01/05 01:32:20;;;;;;;8.07;4.73;;;;;;;-141.97;82.46;45908.78;6181836;23;20658;-87
2024/01/05 01:34:45;;;;;;;6.23;4.20;;;;;;;-141.97;81.83;45974.09;6155426;23;20165;-87
2024/01/05 01:37:11;;;;;;;6.70;4.80;;;;;;;-141.97;81.06;46125.88;6155213;23;20142;-86
2024/01/05 01:39:36;;;;;;;7.30;4.50;;;;;;;-141.97;80.36;46554.34;6181762;23;20142;-86
2024/01/05 01:42:03;;;;;;;7.60;4.77;;;;;;;-141.97;79.79;46383.34;6181955;23;20208;-86
2024/01/05 01:44:29;;;;;;;8.67;4.37;;;;;;;-141.97;79.88;45947.22;6155631;23;20142;-86
2024/01/05 01:46:56;;;;;;;7.90;5.07;;;;;;;-141.97;80.24;46014.44;6154973;23;20142;-86
2024/01/05 01:49:22;;;;;;;12.17;5.80;;;;;;;-141.97;80.86;46177.75;6181545;23;20181;-85
2024/01/05 01:51:48;;;;;;;8.20;5.10;;;;;;;-141.97;81.98;45985.63;6155424;23;20196;-85
2024/01/05 01:54:14;;;;;;;10.33;5.40;;;;;;;-141.97;82.24;46170.06;6181477;23;20150;-86
2024/01/05 01:56:41;;;;;;;8.87;5.73;;;;;;;-141.97;82.30;46168.16;6181611;23;20157;-85
2024/01/05 01:59:07;;;;;;;8.23;5.37;;;;;;;-141.97;82.48;46099.00;6181758;23;20134;-87
2024/01/05 02:01:34;;;;;;;7.97;4.43;;;;;;;-141.97;82.73;46218.09;6156147;23;20228;-87
2024/01/05 02:04:00;;;;;;;7.33;4.40;;;;;;;-141.97;82.97;46319.94;6157232;23;20201;-87
2024/01/05 02:06:26;;;;;;;8.13;4.83;;;;;;;-141.97;82.78;45931.84;6157570;23;20284;-87
2024/01/05 02:08:52;;;;;;;8.60;5.10;;;;;;;-141.97;83.09;46008.69;6157775;23;20146;-86
2024/01/05 02:11:18;;;;;;;8.40;4.80;;;;;;;-141.97;83.51;46035.59;6157582;23;20265;-87
2024/01/05 02:13:43;;;;;;;6.80;4.27;;;;;;;-141.97;83.72;46389.09;6168105;23;20153;-85
2024/01/05 02:16:09;;;;;;;7.63;3.87;;;;;;;-141.97;83.83;45964.50;6169583;23;20146;-88
2024/01/05 02:18:34;;;;;;;6.83;3.97;;;;;;;-141.97;83.41;46465.97;6188574;23;20232;-87
2024/01/05 02:21:02;;;;;;;7.17;4.07;;;;;;;-141.97;82.83;46450.59;6181536;23;20201;-87
2024/01/05 02:23:29;;;;;;;6.77;4.13;;;;;;;-141.97;81.85;46535.13;6182536;23;20220;-86
2024/01/05 02:25:55;;;;;;;6.83;4.43;;;;;;;-141.97;81.19;46279.59;6184126;23;20134;-87
2024/01/05 02:28:21;;;;;;;4.90;3.37;;;;;;;-141.97;80.32;45970.25;6182629;23;20339;-86
2024/01/05 02:30:47;;;;;;;6.30;3.77;;;;;;;-141.97;80.47;46429.47;6183849;23;20194;-86
2024/01/05 02:33:12;;;;;;;7.43;4.10;;;;;;;-141.97;80.58;46433.28;6183927;23;20146;-86
2024/01/05 02:35:38;;;;;;;7.90;4.60;;;;;;;-141.97;79.74;46102.81;6181989;23;20173;-86
2024/01/05 02:38:05;;;;;;;6.13;3.63;;;;;;;-141.97;79.23;46658.13;6181797;23;20189;-86
2024/01/05 02:40:30;;;;;;;6.80;3.70;;;;;;;-141.97;78.90;46394.88;6183418;23;20134;-86
2024/01/05 02:42:56;;;;;;;8.33;4.43;;;;;;;-141.97;78.45;45910.72;6181770;23;20142;-89
2024/01/05 02:45:21;;;;;;;5.30;3.47;;;;;;;-141.97;77.76;46047.13;6183680;23;20134;-86
2024/01/05 02:47:49;;;;;;;6.50;4.37;;;;;;;-141.97;76.56;45935.69;6181333;23;20147;-87
2024/01/05 02:50:15;;;;;;;8.23;4.53;;;;;;;-141.97;76.02;46404.47;6183068;23;20143;-87
2024/01/05 02:52:40;;;;;;;5.27;3.10;;;;;;;-141.97;74.72;46024.06;6182929;23;20209;-88
2024/01/05 02:55:06;;;;;;;6.33;3.50;;;;;;;-141.97;75.05;46489.03;6181671;23;20188;-86
2024/01/05 02:57:31;;;;;;;5.53;2.80;;;;;;;-141.97;73.91;46606.22;6181397;23;20540;-85
2024/01/05 02:59:57;;;;;;;4.97;2.90;;;;;;;-141.97;74.03;46416.00;6183846;23;20146;-87
2024/01/05 03:02:22;;;;;;;4.30;2.93;;;;;;;-141.97;73.42;46471.72;6181852;23;20490;-86
2024/01/05 03:04:49;;;;;;;4.10;2.67;;;;;;;-141.97;72.92;46369.88;6183075;23;20233;-86
2024/01/05 03:07:14;;;;;;;4.93;3.10;;;;;;;-141.97;73.04;46562.03;6182936;23;20137;-86
2024/01/05 03:09:40;;;;;;;4.23;2.57;;;;;;;-141.97;72.46;46544.75;6181400;23;20161;-86
2024/01/05 03:12:06;;;;;;;3.27;2.50;;;;;;;-141.97;71.99;46321.84;6183007;23;20247;-86
2024/01/05 03:14:31;;;;;;;6.33;2.40;;;;;;;-141.97;72.32;46383.34;6181254;23;20553;-85
2024/01/05 03:16:56;;;;;;;4.13;2.90;;;;;;;-141.97;72.50;45929.91;6182052;23;20153;-85
2024/01/05 03:19:22;;;;;;;4.53;2.70;;;;;;;-141.97;72.86;46006.78;6181279;23;20197;-87
2024/01/05 03:21:47;;;;;;;4.57;2.77;;;;;;;-141.97;73.16;46435.22;6181348;23;20138;-86
2024/01/05 03:24:13;;;;;;;3.90;2.17;;;;;;;-141.97;72.84;46058.63;6181812;23;20142;-86
2024/01/05 03:26:43;;;;;;;4.93;3.00;;;;;;;-141.97;73.22;45908.78;6181325;23;20177;-87
2024/01/05 03:29:08;;;;;;;5.20;2.87;;;;;;;-141.97;73.39;46423.69;6181839;23;20146;-87
2024/01/05 03:31:34;;;;;;;5.27;3.20;;;;;;;-141.97;73.10;46410.25;6181364;23;20192;-86
2024/01/05 03:33:59;;;;;;;6.87;3.57;;;;;;;-141.97;73.30;46558.19;6183907;23;20154;-86
2024/01/05 03:36:24;;;;;;;3.97;2.73;;;;;;;-141.97;73.36;46489.03;6182765;23;20568;-86
2024/01/05 03:38:50;;;;;;;4.10;2.73;;;;;;;-141.97;73.91;46348.75;6181128;23;21090;-85
2024/01/05 03:41:16;;;;;;;4.40;2.90;;;;;;;-141.97;75.06;45997.16;6181052;23;20134;-87
2024/01/05 03:43:41;;;;;;;4.40;2.77;;;;;;;-141.97;75.47;45970.25;6183133;23;20138;-86
2024/01/05 03:46:13;;;;;;;5.90;3.37;;;;;;;-141.97;75.47;45883.81;6184131;23;20193;-86
2024/01/05 03:48:39;;;;;;;7.03;3.37;;;;;;;-141.97;74.93;46164.31;6184011;23;20701;-86
2024/01/05 03:51:05;;;;;;;7.13;3.97;;;;;;;-141.97;75.07;46346.84;6180800;23;20211;-86
2024/01/05 03:53:30;;;;;;;6.40;3.17;;;;;;;-141.97;74.52;45981.78;6183083;23;20197;-86
2024/01/05 03:55:59;;;;;;;5.47;3.60;;;;;;;-141.97;74.40;46444.81;6181072;23;20138;-87
2024/01/05 03:58:25;;;;;;;4.47;3.03;;;;;;;-141.97;74.78;46519.75;6183806;23;20137;-85
2024/01/05 04:00:50;;;;;;;5.97;3.50;;;;;;;-141.97;74.73;46446.75;6180993;23;20142;-86
2024/01/05 04:03:17;;;;;;;5.13;3.10;;;;;;;-141.97;74.82;46004.84;6182627;23;20160;-85
2024/01/05 04:05:43;;;;;;;5.47;3.60;;;;;;;-141.97;75.05;46145.09;6182575;23;20130;-86
2024/01/05 04:08:08;;;;;;;6.97;3.37;;;;;;;-141.97;75.36;46018.28;6180915;23;20574;-86
2024/01/05 04:10:35;;;;;;;5.13;2.97;;;;;;;-141.97;76.05;46074.00;6182730;23;20138;-87
2024/01/05 04:13:00;;;;;;;5.90;2.43;;;;;;;-141.97;76.61;45943.38;6186520;23;20167;-86
2024/01/05 04:15:27;;;;;;;5.27;2.97;;;;;;;-141.97;76.61;45897.25;6182167;23;20622;-86
2024/01/05 04:17:53;;;;;;;5.03;2.70;;;;;;;-141.97;77.05;46444.81;6182657;23;20130;-85
2024/01/05 04:20:18;;;;;;;3.03;2.00;;;;;;;-141.97;76.96;46022.13;6183269;23;20208;-87
2024/01/05 04:22:44;;;;;;;2.80;1.90;;;;;;;-141.97;76.71;46058.63;6156602;23;20190;-87
2024/01/05 04:25:09;;;;;;;2.83;1.97;;;;;;;-141.97;77.12;46431.38;6155444;23;20173;-86
2024/01/05 04:27:34;;;;;;;3.20;2.23;;;;;;;-141.97;77.53;45974.09;6156013;23;20144;-87
2024/01/05 04:30:00;;;;;;;4.87;2.60;;;;;;;-141.97;77.68;45993.31;6182154;23;20280;-87
2024/01/05 04:32:25;;;;;;;3.27;2.07;;;;;;;-141.97;77.42;46496.72;6181935;23;20490;-86
2024/01/05 04:34:50;;;;;;;2.43;2.03;;;;;;;-141.97;76.15;46012.53;6181824;23;20177;-86
2024/01/05 04:37:16;;;;;;;3.60;1.77;;;;;;;-141.97;76.51;46394.88;6181744;23;20213;-85
2024/01/05 04:39:43;;;;;;;5.37;2.77;;;;;;;-141.97;76.22;46452.50;6155430;23;20159;-86
2024/01/05 04:42:10;;;;;;;6.17;3.00;;;;;;;-141.97;76.83;46458.28;6155784;23;20495;-86
2024/01/05 04:44:36;;;;;;;4.10;2.60;;;;;;;-141.97;76.52;46062.47;6155913;23;20157;-86
2024/01/05 04:47:02;;;;;;;5.37;2.70;;;;;;;-141.97;76.54;46031.75;6155901;23;20194;-86
2024/01/05 04:49:27;;;;;;;4.87;2.70;;;;;;;-141.97;76.50;46077.84;6181860;23;20192;-86
2024/01/05 04:51:53;;;;;;;4.70;2.60;;;;;;;-141.97;76.24;45929.91;6181454;23;20241;-86
2024/01/05 04:54:18;;;;;;;3.47;2.30;;;;;;;-141.97;75.96;46427.53;6155559;23;20150;-87
2024/01/05 04:56:44;;;;;;;3.73;2.37;;;;;;;-141.97;75.94;46427.53;6155834;23;20142;-87
2024/01/05 04:59:09;;;;;;;4.73;3.03;;;;;;;-141.97;75.89;46458.28;6156941;23;20634;-87
2024/01/05 05:01:35;;;;;;;4.07;2.70;;;;;;;-141.97;75.21;46385.25;6182581;23;20133;-86
2024/01/05 05:04:01;;;;;;;3.40;2.37;;;;;;;-141.97;74.48;46427.53;6156815;23;20169;-85
2024/01/05 05:06:27;;;;;;;4.97;2.37;;;;;;;-141.97;73.77;46354.53;6181972;23;20134;-86
2024/01/05 05:08:53;;;;;;;4.97;2.50;;;;;;;-141.97;73.51;45974.09;6157438;23;20138;-87
2024/01/05 05:11:19;;;;;;;3.33;2.30;;;;;;;-141.97;73.22;45929.91;6155884;23;20178;-86
2024/01/05 05:13:44;;;;;;;5.37;2.87;;;;;;;-141.97;73.55;46512.06;6155471;23;20152;-85
2024/01/05 05:16:10;;;;;;;4.30;3.00;;;;;;;-141.97;74.00;46074.00;6183025;23;20575;-85
2024/01/05 05:18:35;;;;;;;4.93;3.37;;;;;;;-141.97;74.33;46035.59;6156566;23;20150;-87
2024/01/05 05:21:02;;;;;;;15.13;7.87;;;;;;;-141.97;74.90;46404.47;6175408;23;20237;-86
2024/01/05 05:23:27;;;;;;;12.27;6.27;;;;;;;-141.97;75.38;46056.72;6180051;23;20232;-85
2024/01/05 05:25:52;;;;;;;24.40;10.47;;;;;;;-141.97;75.57;46291.13;6181683;23;20166;-86
2024/01/05 05:28:18;;;;;;;15.07;7.47;;;;;;;-141.97;75.74;45937.59;6194712;23;20538;-86
2024/01/05 06:06:56;;;;;;;53.37;26.47;;;;;;;-141.97;74.10;45906.88;6176571;23;20205;-87
2024/01/05 06:09:21;;;;;;;71.47;37.40;;;;;;;-141.97;73.98;46458.28;6180573;23;20229;-86
2024/01/05 06:11:47;;;;;;;77.60;41.40;;;;;;;-141.97;74.40;46004.84;6182538;23;20199;-89
2024/01/05 06:14:12;;;;;;;66.30;39.10;;;;;;;-141.97;73.99;45887.66;6182417;23;20134;-86
2024/01/05 06:16:38;;;;;;;21.20;13.47;;;;;;;-141.97;74.42;46018.28;6180763;23;20214;-86
2024/01/05 06:19:03;;;;;;;16.80;9.43;;;;;;;-141.97;74.75;45881.91;6180299;23;20512;-86
2024/01/05 06:21:29;;;;;;;13.93;8.43;;;;;;;-141.97;74.64;46473.66;6180361;23;20138;-86
2024/01/05 06:23:54;;;;;;;14.97;9.30;;;;;;;-141.97;74.77;46104.75;6180457;23;20142;-85
2024/01/05 06:26:20;;;;;;;12.40;8.70;;;;;;;-141.97;74.89;46039.44;6180315;23;20158;-86
2024/01/05 06:28:45;;;;;;;32.40;15.97;;;;;;;-141.97;74.70;46423.69;6183216;23;20595;-84
2024/01/05 06:31:11;;;;;;;31.70;17.77;;;;;;;-141.97;74.37;46064.41;6182612;23;20169;-85
2024/01/05 06:33:36;;;;;;;69.00;31.17;;;;;;;-141.97;74.23;46173.91;6181883;23;20134;-86
2024/01/05 06:36:02;;;;;;;72.93;37.97;;;;;;;-141.97;73.45;46060.56;6181739;23;20138;-85
2024/01/05 06:38:27;;;;;;;53.07;29.00;;;;;;;-141.97;73.19;46477.50;6179879;23;20241;-86
2024/01/05 06:40:52;;;;;;;42.30;24.03;;;;;;;-141.97;72.21;45820.41;6181891;23;20131;-85
2024/01/05 06:43:18;;;;;;;17.87;8.13;;;;;;;-141.97;70.54;46095.16;6182284;23;20187;-86
2024/01/05 06:45:43;;;;;;;17.30;8.80;;;;;;;-141.97;69.87;45993.31;6181584;23;20138;-85
2024/01/05 06:48:08;;;;;;;7.20;4.00;;;;;;;-141.97;69.58;46079.78;6183071;23;20426;-86
2024/01/05 06:50:34;;;;;;;13.10;9.20;;;;;;;-141.97;69.32;45943.38;6181622;23;20193;-86
2024/01/05 06:52:59;;;;;;;16.20;10.30;;;;;;;-141.97;69.32;46179.69;6183580;23;20138;-88
2024/01/05 06:55:25;;;;;;;13.53;7.50;;;;;;;-141.97;69.23;45970.25;6181822;23;20146;-88
2024/01/05 06:57:50;;;;;;;8.10;6.23;;;;;;;-141.97;68.62;46147.03;6184200;23;20142;-86
2024/01/05 07:00:16;;;;;;;10.00;7.53;;;;;;;-141.97;67.77;46477.50;6195682;23;20134;-89
2024/01/05 07:02:41;;;;;;;7.00;4.40;;;;;;;-141.97;67.49;46070.16;6187620;23;20424;-89
2024/01/05 07:05:07;;;;;;;9.33;5.30;;;;;;;-141.97;67.06;46538.97;6188774;23;20142;-89
2024/01/05 07:07:33;;;;;;;9.77;4.70;;;;;;;-141.97;64.17;45949.13;6190150;23;20232;-89
2024/01/05 07:09:58;;;;;;;14.60;7.80;;;;;;;-141.97;55.63;45874.22;6194557;23;20244;-91
2024/01/05 07:12:24;;;;;;;6.67;4.50;;;;;;;-141.97;51.31;45818.50;6194051;23;20283;-90
2024/01/05 07:14:50;;;;;;;9.53;4.60;;;;;;;-141.97;48.84;46160.47;6191801;23;20134;-90
2024/01/05 07:17:15;;;;;;;16.60;9.47;;;;;;;-141.97;45.52;46131.66;6191263;23;20139;-90
2024/01/05 07:19:41;;;;;;;10.47;6.07;;;;;;;-141.97;42.37;45801.22;6189376;23;20141;-90
2024/01/05 07:22:07;;;;;;;5.63;3.80;;;;;;;-141.97;42.66;45716.69;6192308;23;20521;-90
2024/01/05 07:24:35;;;;;;;8.03;3.83;;;;;;;-141.97;43.14;46131.66;6193136;23;20138;-89
2024/01/05 07:27:07;;;;;;;10.87;4.53;;;;;;;-141.97;42.70;45778.16;6188632;23;20156;-89
2024/01/05 07:29:32;;;;;;;9.47;6.63;;;;;;;-141.97;42.88;45689.78;6187276;23;20147;-87
2024/01/05 07:31:58;;;;;;;7.40;4.60;;;;;;;-141.97;43.72;45586.06;6184964;23;20639;-88
2024/01/05 07:34:23;;;;;;;8.93;5.57;;;;;;;-141.97;47.41;46002.94;6187805;23;20130;-88
2024/01/05 07:36:49;;;;;;;5.83;4.10;;;;;;;-141.97;49.85;45747.41;6184094;23;20145;-88
2024/01/05 07:39:15;;;;;;;8.07;3.77;;;;;;;-141.97;51.45;46285.34;6183369;23;20146;-87
2024/01/05 07:41:41;;;;;;;12.83;6.73;;;;;;;-141.97;51.68;46033.66;6191903;23;20209;-88
2024/01/05 07:44:07;;;;;;;32.80;16.07;;;;;;;-141.97;51.68;45795.44;6190780;23;20201;-87
2024/01/05 07:46:32;;;;;;;11.23;5.80;;;;;;;-141.97;51.42;46014.44;6191179;23;20138;-86
2024/01/05 07:49:09;;;;;;;23.23;11.33;;;;;;;-141.97;51.65;46001.00;6194876;23;20145;-88
2024/01/05 07:51:35;;;;;;;18.27;8.83;;;;;;;-141.97;52.04;46385.25;6139281;23;20261;-88
2024/01/05 07:54:01;;;;;;;50.40;23.17;;;;;;;-141.97;51.43;46020.22;6141620;23;20165;-88
2024/01/05 07:57:00;;;;;;;23.07;10.13;;;;;;;-141.97;50.24;45833.88;6119323;23;20159;-91
2024/01/05 08:02:11;;;;;;;38.43;19.57;;;;;;;-141.97;50.58;46002.94;6214152;23;20193;-89
2024/01/05 08:04:38;;;;;;;15.50;8.13;;;;;;;-141.97;49.67;45987.56;6210535;23;20181;-89
2024/01/05 08:07:05;;;;;;;27.87;14.00;;;;;;;-141.97;49.59;45764.72;6209911;23;20157;-90
2024/01/05 08:09:36;;;;;;;31.53;18.30;;;;;;;-141.97;48.68;45853.06;6238747;23;20174;-90
2024/01/05 08:12:03;;;;;;;31.30;17.77;;;;;;;-141.97;48.13;45805.06;6238501;23;20229;-91
2024/01/05 08:14:54;;;;;;;16.10;5.97;;;;;;;-141.97;47.61;46200.81;6209251;23;20221;-92
2024/01/05 08:17:51;;;;;;;14.67;4.83;;;;;;;-141.97;48.03;45935.69;6071398;23;20150;-92
2024/01/05 08:20:18;;;;;;;10.33;4.00;;;;;;;-141.97;48.08;45947.22;6115599;23;20834;-87
2024/01/05 08:23:06;;;;;;;9.47;4.23;;;;;;;-141.97;48.03;46289.19;6108574;23;20152;-87
2024/01/05 08:25:38;;;;;;;13.00;4.47;;;;;;;-141.97;47.86;45947.22;6117192;23;20563;-88
2024/01/05 08:28:08;;;;;;;11.13;5.10;;;;;;;-141.97;47.36;45895.34;6091542;23;20175;-94
2024/01/05 08:30:36;;;;;;;9.37;4.00;;;;;;;-141.97;46.66;46131.66;6051198;23;20189;-89
2024/01/05 08:33:05;;;;;;;7.27;4.50;;;;;;;-141.97;46.01;46085.53;6009636;23;20164;-89
2024/01/05 08:35:30;;;;;;;9.07;4.63;;;;;;;-141.97;45.47;45912.63;6033878;23;20270;-89
2024/01/05 08:37:56;;;;;;;8.07;4.27;;;;;;;-141.97;45.32;46214.25;6033737;23;20161;-88
2024/01/05 08:40:25;;;;;;;11.10;6.30;;;;;;;-141.97;44.47;46366.06;6009142;23;20175;-88
2024/01/05 08:42:52;;;;;;;6.83;4.50;;;;;;;-141.97;45.27;46108.59;6009357;23;20519;-90
2024/01/05 08:45:19;;;;;;;46.70;23.07;;;;;;;-141.97;45.90;45764.72;6009541;23;20164;-88
2024/01/05 08:47:45;;;;;;;30.57;15.90;;;;;;;-141.97;46.11;45808.91;6042905;23;20312;-90
2024/01/05 08:50:13;;;;;;;9.10;4.63;;;;;;;-141.97;45.81;46350.69;6048841;23;20169;-89
2024/01/05 08:52:39;;;;;;;12.43;4.40;;;;;;;-141.97;46.07;46331.47;6120571;23;20190;-87
2024/01/05 08:55:05;;;;;;;9.13;4.83;;;;;;;-141.97;45.38;45839.63;6099251;23;20162;-86
2024/01/05 08:57:30;;;;;;;9.70;4.60;;;;;;;-141.97;44.99;45985.63;6147602;23;20166;-85
2024/01/05 08:59:56;;;;;;;13.20;6.80;;;;;;;-141.97;44.75;45812.72;6151166;23;20143;-86
2024/01/05 09:02:22;;;;;;;10.77;6.30;;;;;;;-141.97;44.13;45887.66;6217207;23;20193;-85
2024/01/05 09:04:48;;;;;;;14.30;8.27;;;;;;;-141.97;44.16;45716.69;6196592;23;20153;-86
2024/01/05 09:07:15;;;;;;;6.17;3.67;;;;;;;-141.97;42.98;45851.16;6227777;23;20164;-86
2024/01/05 09:09:41;;;;;;;15.20;11.07;;;;;;;-141.97;42.55;46135.50;6230628;23;20125;-88
2024/01/05 09:12:07;;;;;;;13.53;8.50;;;;;;;-141.97;42.86;45822.34;6202485;23;20191;-90
2024/01/05 09:14:33;;;;;;;20.63;10.93;;;;;;;-141.97;42.75;46246.94;6222417;23;20225;-84
2024/01/05 09:16:58;;;;;;;54.53;25.67;;;;;;;-141.97;42.64;45843.47;6212852;23;20137;-88
2024/01/05 09:19:24;;;;;;;16.53;8.70;;;;;;;-141.97;42.54;46031.75;6210984;23;20629;-78
2024/01/05 09:21:49;;;;;;;9.00;5.60;;;;;;;-141.97;41.62;46166.22;6211248;23;20142;-78
2024/01/05 09:24:15;;;;;;;4.83;3.40;;;;;;;-141.97;41.04;45774.31;6184207;23;20149;-80
2024/01/05 09:26:41;;;;;;;3.40;2.67;;;;;;;-141.97;40.52;45837.72;6211332;23;20551;-78
2024/01/05 09:29:07;;;;;;;5.83;3.37;;;;;;;-141.97;40.74;45828.09;6210908;23;20130;-80
2024/01/05 09:31:33;;;;;;;7.20;4.60;;;;;;;-141.97;40.70;45793.53;6211044;23;20253;-80
2024/01/05 09:33:59;;;;;;;6.63;3.40;;;;;;;-141.97;39.88;45814.66;6211313;23;20140;-79
2024/01/05 09:36:24;;;;;;;7.20;3.70;;;;;;;-141.97;40.23;45766.63;6211270;23;20133;-80
2024/01/05 09:38:50;;;;;;;5.10;3.23;;;;;;;-141.97;40.05;45820.41;6210881;23;20152;-80
2024/01/05 09:41:16;;;;;;;6.73;4.13;;;;;;;-141.97;40.26;45659.06;6211275;23;20137;-81
2024/01/05 09:43:43;;;;;;;7.07;3.10;;;;;;;-141.97;40.29;46085.53;6184607;23;20153;-80
2024/01/05 09:46:09;;;;;;;10.90;5.80;;;;;;;-141.97;39.84;45831.94;6184718;23;20146;-79
2024/01/05 09:48:35;;;;;;;7.37;3.90;;;;;;;-141.97;39.95;45797.38;6210930;23;20255;-80
2024/01/05 09:51:04;;;;;;;12.03;5.30;;;;;;;-141.97;40.04;46166.22;6186191;23;20260;-80
2024/01/05 09:53:30;;;;;;;10.60;4.87;;;;;;;-141.97;39.83;46077.84;6185099;23;20181;-79
2024/01/05 09:55:55;;;;;;;9.63;5.00;;;;;;;-141.97;39.56;45822.34;6211470;23;20187;-80
2024/01/05 09:58:21;;;;;;;10.60;4.70;;;;;;;-141.97;38.65;45751.25;6211133;23;20219;-77
2024/01/05 10:00:51;;;;;;;12.87;4.40;;;;;;;-141.97;38.44;46158.53;6211364;23;20136;-77
2024/01/05 10:03:21;;;;;;;10.40;4.97;;;;;;;-141.97;38.62;45879.97;6211256;23;20167;-77
2024/01/05 10:05:49;;;;;;;10.97;4.30;;;;;;;-141.97;38.70;45837.72;6184538;23;20235;-77
2024/01/05 10:08:15;;;;;;;7.43;4.30;;;;;;;-141.97;38.17;45643.69;6215595;23;20160;-77
2024/01/05 10:10:55;;;;;;;8.13;3.97;;;;;;;-141.97;37.72;45803.13;6211562;23;20516;-78
2024/01/05 10:13:20;;;;;;;7.27;4.37;;;;;;;-141.97;37.72;46208.50;6213897;23;20141;-78
2024/01/05 10:15:58;;;;;;;9.13;4.60;;;;;;;-141.97;37.68;45797.38;6186912;23;20224;-77
2024/01/05 10:18:25;;;;;;;8.83;4.60;;;;;;;-141.97;37.42;45822.34;6213767;23;20135;-76
2024/01/05 10:20:50;;;;;;;5.63;3.50;;;;;;;-141.97;36.47;45764.72;6213253;23;20233;-78
2024/01/05 10:23:16;;;;;;;7.60;3.60;;;;;;;-141.97;35.69;45805.06;6214230;23;20140;-77
2024/01/05 10:25:42;;;;;;;7.77;3.83;;;;;;;-141.97;35.64;45657.13;6213942;23;20167;-78
2024/01/05 10:28:43;;;;;;;11.23;4.47;;;;;;;-141.97;35.55;45816.56;6214084;23;20134;-78
2024/01/05 10:31:13;;;;;;;8.73;4.10;;;;;;;-141.97;35.57;46227.72;6122043;23;20708;-78
2024/01/05 10:33:52;;;;;;;7.33;4.03;;;;;;;-141.97;35.26;45755.09;6121761;23;20260;-77
2024/01/05 10:36:22;;;;;;;316.53;149.17;;;;;;;-141.97;35.49;45808.91;6121617;23;20199;-77
2024/01/05 10:38:48;;;;;;;9.47;4.40;;;;;;;-141.97;36.92;45828.09;6096907;23;20668;-77
2024/01/05 10:41:18;;;;;;;15.73;12.37;;;;;;;-141.97;38.73;45710.91;6096976;23;20152;-78
2024/01/05 10:43:43;;;;;;;15.53;11.53;;;;;;;-141.97;38.60;45849.25;6123629;23;20228;-78
2024/01/05 10:46:15;;;;;;;15.10;5.00;;;;;;;-141.97;38.29;45674.41;6099520;23;20195;-77
2024/01/05 10:48:41;;;;;;;11.90;6.30;;;;;;;-141.97;38.89;46123.97;6122273;23;20226;-77
2024/01/05 10:51:09;;;;;;;11.90;6.13;;;;;;;-141.97;39.19;45712.84;6122247;23;20178;-78
2024/01/05 10:53:36;;;;;;;10.80;6.03;;;;;;;-141.97;39.49;46050.97;6123283;23;20159;-77
2024/01/05 10:56:02;;;;;;;11.23;5.97;;;;;;;-141.97;39.30;45693.63;6122256;23;20270;-78
2024/01/05 10:58:28;;;;;;;7.03;3.97;;;;;;;-141.97;39.13;45851.16;6097202;23;20222;-77
2024/01/05 11:00:57;;;;;;;8.40;5.53;;;;;;;-141.97;38.94;45847.31;6123044;23;20292;-76
2024/01/05 11:03:28;;;;;;;8.97;4.97;;;;;;;-141.97;38.75;45855.00;6121279;23;20456;-77
2024/01/05 11:05:53;;;;;;;11.90;6.70;;;;;;;-141.97;39.25;45916.47;6170840;23;20153;-78
2024/01/05 11:08:52;;;;;;;13.60;6.50;;;;;;;-141.97;39.15;45824.25;6212952;23;20145;-77
2024/01/05 11:11:27;;;;;;;7.73;4.73;;;;;;;-141.97;38.84;45833.88;6212816;23;20165;-79
2024/01/05 11:14:32;;;;;;;10.00;5.10;;;;;;;-141.97;39.00;45843.47;6212502;23;20211;-77
2024/01/05 11:17:18;;;;;;;9.03;4.50;;;;;;;-141.97;38.99;45816.56;6121905;23;20498;-79
2024/01/05 11:20:02;;;;;;;6.47;3.93;;;;;;;-141.97;39.66;45849.25;6122231;23;20219;-79
2024/01/05 11:22:32;;;;;;;12.77;5.50;;;;;;;-141.97;39.97;46020.22;6121693;23;20640;-79
2024/01/05 11:24:58;;;;;;;10.30;5.60;;;;;;;-141.97;39.88;45797.38;6121891;23;20140;-78
2024/01/05 11:27:34;;;;;;;13.00;6.10;;;;;;;-141.97;40.07;45855.00;6101866;23;20155;-88
2024/01/05 11:30:02;;;;;;;9.03;6.50;;;;;;;-141.97;39.93;45849.25;6127307;23;20154;-89
2024/01/05 11:32:49;;;;;;;7.87;4.07;;;;;;;-141.97;39.24;45843.47;6100734;23;20250;-88
2024/01/05 11:35:19;;;;;;;8.27;4.83;;;;;;;-141.97;38.50;45843.47;6126466;23;20155;-89
2024/01/05 11:37:46;;;;;;;10.23;5.13;;;;;;;-141.97;38.54;45824.25;6105243;23;20147;-89
2024/01/05 11:40:40;;;;;;;9.77;5.67;;;;;;;-141.97;38.48;45820.41;6127458;23;20151;-88
2024/01/05 11:43:33;;;;;;;10.07;5.60;;;;;;;-141.97;37.37;45810.81;6038947;23;20149;-90
2024/01/05 11:45:59;;;;;;;9.17;5.60;;;;;;;-141.97;37.22;45805.06;6013707;23;20145;-89
2024/01/05 11:48:33;;;;;;;7.60;4.50;;;;;;;-141.97;36.70;45805.06;6037495;23;20246;-88
2024/01/05 11:51:08;;;;;;;8.80;4.47;;;;;;;-141.97;37.34;45820.41;6038303;23;20140;-87
2024/01/05 11:53:52;;;;;;;9.30;4.97;;;;;;;-141.97;37.22;45805.06;6052743;23;20156;-87
2024/01/05 11:56:20;;;;;;;15.93;10.10;;;;;;;-141.97;37.07;45693.63;6023327;23;20219;-77
2024/01/05 11:58:46;;;;;;;28.00;17.23;;;;;;;-141.97;36.82;45707.06;6057356;23;20565;-77
2024/01/05 12:01:13;;;;;;;7.47;4.70;;;;;;;-141.97;36.88;46116.28;6037832;23;20323;-78
2024/01/05 12:03:39;;;;;;;240.30;106.43;;;;;;;-141.97;37.18;45699.41;6062214;23;20149;-78
2024/01/05 12:06:06;;;;;;;114.37;52.23;;;;;;;-141.97;37.32;46041.34;6062158;23;20229;-78
2024/01/05 12:08:32;;;;;;;62.43;30.73;;;;;;;-141.97;37.07;45801.22;6063644;23;20144;-77
2024/01/05 12:11:03;;;;;;;14.80;7.50;;;;;;;-141.97;36.07;45743.56;6062305;23;20435;-78
2024/01/05 12:13:30;;;;;;;11.30;6.03;;;;;;;-141.97;35.72;46047.13;6061969;23;20509;-78
2024/01/05 12:16:07;;;;;;;7.10;4.57;;;;;;;-141.97;34.75;45783.91;6038414;23;20231;-77
2024/01/05 12:18:42;;;;;;;133.90;47.37;;;;;;;-141.97;35.14;45808.91;6079460;23;20155;-78
2024/01/05 12:21:09;;;;;;;191.63;60.70;;;;;;;-141.97;35.37;46087.47;6212195;23;20136;-79
2024/01/05 12:23:35;;;;;;;23.40;10.17;;;;;;;-141.97;35.20;45647.53;6185031;23;20566;-79